Latest Weather Observations for Cape Otway

IDV60801

Issued at 10:02 pm EST Thursday 25 May 2017 (issued every 30 minutes, with the page automatically refreshed every 10 minutes)

About weather observations | Map of weather stations | Latest weather observations for VIC | Other Formats
Station Details ID: 090015 Name: CAPE OTWAY LIGHTHOUSE Lat: -38.86 Lon: 143.51 Height: 82.0 m
Data from the previous 72 hours. | See also: Recent months at Cape Otway
Date/Time
EST
Temp
°C
App
Temp
°C
Dew
Point
°C
Rel
Hum
%
Delta-T
°C
Wind Press
QNH
hPa
Press
MSL
hPa
Rain since
9am
mm
Dir  Spd
km/h
Gust
km/h
Spd
kts
Gust
kts
25/10:00pm 13.1 10.5 10.8 86 1.2 WNW 15 19 8 10 1018.7 1018.7 1.6
25/09:30pm 13.6 10.4 11.3 86 1.2 W 19 26 10 14 1018.7 1018.7 1.6
25/09:00pm 13.9 10.3 11.8 87 1.1 WSW 22 30 12 16 1018.3 1018.3 1.6
25/08:30pm 14.0 10.1 12.2 89 1.0 WSW 24 32 13 17 1017.9 1017.9 1.6
25/08:00pm 13.9 10.4 12.1 89 1.0 W 22 30 12 16 1017.6 1017.6 1.6
25/07:30pm 13.4 9.0 11.6 89 1.0 W 26 35 14 19 1017.7 1017.7 1.4
25/07:00pm 13.7 8.9 11.8 88 1.0 W 28 44 15 24 1017.3 1017.3 1.4
25/06:40pm 14.7 10.2 12.6 87 1.2 WNW 28 46 15 25 1017.0 1017.0 0.8
25/06:30pm 14.7 10.1 12.4 86 1.3 WNW 28 43 15 23 1016.8 1016.8 0.8
25/06:00pm 14.8 11.7 12.3 85 1.4 WNW 20 32 11 17 1016.5 1016.5 0.0
25/05:30pm 14.8 10.8 11.9 83 1.6 WNW 24 35 13 19 1016.3 1016.3 0.0
25/05:01pm 15.0 10.3 12.0 82 1.6 WNW 28 46 15 25 1016.1 1016.1 0.0
25/05:00pm 15.0 9.9 12.0 82 1.6 WNW 30 46 16 25 1016.1 1016.1 0.0
25/04:30pm 15.5 9.5 12.1 80 1.9 WNW 35 50 19 27 1016.0 1016.0 0.0
25/04:00pm 15.6 10.2 12.2 80 1.9 WNW 32 46 17 25 1016.0 1016.0 0.0
25/03:30pm 15.4 10.6 11.6 78 2.1 NW 28 43 15 23 1015.9 1015.9 0.0
25/03:00pm 15.4 10.5 11.4 77 2.2 NW 28 46 15 25 1015.8 1015.8 0.0
25/02:31pm 15.7 10.7 11.1 74 2.5 NW 28 48 15 26 1015.9 1015.9 0.0
25/02:30pm 15.8 11.2 11.2 74 2.5 NW 26 39 14 21 1015.9 1015.9 0.0
25/02:14pm 15.9 10.9 11.1 73 2.6 NW 28 50 15 27 1015.9 1015.9 0.0
25/02:00pm 15.9 11.4 11.3 74 2.5 NW 26 44 14 24 1016.0 1016.0 0.0
25/01:30pm 16.3 11.3 10.8 70 2.9 NW 28 50 15 27 1016.0 1016.0 0.0
25/01:00pm 16.3 12.3 10.4 68 3.1 NW 22 35 12 19 1016.2 1016.2 0.0
25/12:30pm 16.1 11.8 10.6 70 2.9 NW 24 37 13 20 1016.7 1016.7 0.0
25/12:00pm 16.0 11.6 10.3 69 3.0 NW 24 41 13 22 1017.0 1017.0 0.0
25/11:30am 15.2 10.3 9.8 70 2.8 NW 26 43 14 23 1017.7 1017.7 0.0
25/11:00am 15.3 10.3 9.4 68 3.0 NNW 26 43 14 23 1017.9 1017.9 0.0
25/10:30am 14.7 8.8 8.9 68 3.0 NNW 30 46 16 25 1017.9 1017.9 0.0
25/10:22am 14.7 9.1 8.9 68 3.0 NNW 28 46 15 25 1018.0 1018.0 0.0
25/10:00am 14.4 8.8 8.8 69 2.8 NNW 28 43 15 23 1018.0 1018.0 0.0
25/09:50am 13.9 8.3 8.7 71 2.6 NNW 28 46 15 25 1017.9 1017.9 0.0
25/09:30am 13.4 7.9 9.1 75 2.2 NNW 28 43 15 23 1017.8 1017.8 0.0
25/09:00am 13.1 8.3 8.8 75 2.2 NW 24 43 13 23 1018.2 1018.2 1.0
25/08:30am 13.3 8.7 8.2 71 2.5 NW 22 39 12 21 1018.2 1018.2 1.0
25/08:00am 13.2 8.5 7.9 70 2.6 NNW 22 33 12 18 1018.1 1018.1 1.0
25/07:30am 12.8 8.2 8.1 73 2.3 NW 22 39 12 21 1018.0 1018.0 1.0
25/07:00am 12.4 7.5 8.5 77 1.9 NW 24 37 13 20 1018.0 1018.0 1.0
25/06:30am 12.6 8.0 8.3 75 2.1 NW 22 33 12 18 1018.1 1018.1 1.0
25/06:00am 13.1 8.1 8.2 72 2.4 NW 24 39 13 21 1017.9 1017.9 1.0
25/05:30am 12.6 8.5 8.5 76 2.0 NNW 20 30 11 16 1017.8 1017.8 1.0
25/05:00am 12.5 8.4 8.8 78 1.9 NW 20 32 11 17 1017.8 1017.8 1.0
25/04:30am 12.4 8.2 9.6 83 1.4 NW 22 33 12 18 1017.9 1017.9 1.0
25/04:00am 12.1 8.0 10.0 87 1.1 NNW 22 32 12 17 1017.8 1017.8 1.0
25/03:30am 12.0 8.5 10.2 89 0.9 NW 19 26 10 14 1018.0 1018.0 1.0
25/03:00am 12.2 8.8 10.6 90 0.8 NW 19 30 10 16 1018.0 1018.0 0.8
25/02:30am 12.1 8.5 10.5 90 0.8 NW 20 32 11 17 1018.0 1018.0 0.8
25/02:00am 11.7 8.2 10.1 90 0.8 NW 19 28 10 15 1018.0 1018.0 0.8
25/01:30am 11.9 8.2 10.3 90 0.8 NW 20 33 11 18 1018.2 1018.2 0.8
25/01:00am 12.0 8.5 10.2 89 0.9 NW 19 30 10 16 1018.4 1018.4 0.6
25/12:30am 12.2 8.5 10.3 88 1.0 NW 20 32 11 17 1018.5 1018.5 0.6
25/12:00am 12.3 8.6 10.2 87 1.1 NW 20 33 11 18 1018.5 1018.5 0.6
 
Date/Time
EST
Temp
°C
App
Temp
°C
Dew
Point
°C
Rel
Hum
%
Delta-T
°C
Wind Press
QNH
hPa
Press
MSL
hPa
Rain since
9am
mm
Dir  Spd
km/h
Gust
km/h
Spd
kts
Gust
kts
24/11:30pm 12.8 8.3 10.0 83 1.4 WNW 24 35 13 19 1018.6 1018.6 0.6
24/11:00pm 13.3 8.3 9.7 79 1.8 WNW 26 39 14 21 1018.5 1018.5 0.6
24/10:30pm 13.2 8.5 10.7 85 1.3 WNW 26 39 14 21 1018.4 1018.4 0.6
24/10:00pm 13.5 8.1 11.0 85 1.3 W 30 43 16 23 1018.5 1018.5 0.6
24/09:30pm 13.1 7.2 11.0 87 1.1 W 33 44 18 24 1018.5 1018.5 0.6
24/09:00pm 12.7 7.7 10.8 88 1.0 W 28 39 15 21 1018.5 1018.5 0.6
24/08:48pm 12.7 7.3 10.8 88 1.0 WNW 30 48 16 26 1018.5 1018.5 0.6
24/08:30pm 12.7 7.3 10.8 88 1.0 W 30 39 16 21 1018.5 1018.5 0.2
24/08:00pm 13.2 7.4 10.7 85 1.3 W 32 46 17 25 1018.5 1018.5 0.2
24/07:45pm 13.5 8.5 10.9 84 1.4 W 28 48 15 26 1018.3 1018.3 0.2
24/07:30pm 13.3 7.8 10.7 84 1.4 W 30 43 16 23 1018.2 1018.2 0.2
24/07:00pm 13.8 8.6 10.4 80 1.8 W 28 41 15 22 1018.0 1018.0 0.0
24/06:34pm 13.6 7.9 9.8 78 2.0 W 30 48 16 26 1017.7 1017.7 0.0
24/06:30pm 13.8 8.5 10.0 78 2.0 W 28 41 15 22 1017.7 1017.7 0.0
24/06:20pm 13.8 8.1 9.8 77 2.1 W 30 48 16 26 1017.7 1017.7 0.0
24/06:00pm 14.1 8.0 9.9 76 2.2 W 32 43 17 23 1017.5 1017.5 0.0
24/05:30pm 13.8 7.1 9.5 75 2.2 W 35 44 19 24 1017.2 1017.2 0.0
24/05:00pm 14.0 7.5 10.2 78 2.0 W 35 48 19 26 1017.0 1017.0 0.0
24/04:30pm 13.8 7.3 10.2 79 1.9 W 35 48 19 26 1016.7 1016.7 0.0
24/04:00pm 13.8 7.7 9.8 77 2.1 W 32 48 17 26 1016.4 1016.4 0.0
24/03:32pm 13.8 8.0 9.6 76 2.2 WNW 30 48 16 26 1016.1 1016.1 0.0
24/03:30pm 14.0 8.3 9.8 76 2.2 WNW 30 44 16 24 1016.1 1016.1 0.0
24/03:01pm 14.0 8.6 9.4 74 2.4 WNW 28 46 15 25 1015.7 1015.7 0.0
24/03:00pm 14.1 8.7 9.5 74 2.4 WNW 28 43 15 23 1015.7 1015.7 0.0
24/02:43pm 14.2 7.7 8.8 70 2.7 W 33 54 18 29 1015.5 1015.5 0.0
24/02:30pm 13.8 8.2 8.8 72 2.5 W 28 39 15 21 1015.5 1015.5 0.0
24/02:18pm 13.8 8.1 8.4 70 2.7 W 28 46 15 25 1015.5 1015.5 0.0
24/02:00pm 14.4 7.8 7.9 65 3.2 W 32 44 17 24 1015.4 1015.4 0.0
24/01:30pm 14.4 7.6 7.7 64 3.3 W 33 44 18 24 1015.3 1015.3 0.0
24/01:00pm 14.7 8.1 8.4 66 3.2 W 33 46 18 25 1015.2 1015.2 0.0
24/12:30pm 14.5 7.9 8.7 68 2.9 W 33 44 18 24 1015.1 1015.1 0.0
24/12:00pm 14.3 7.3 8.3 67 3.0 W 35 50 19 27 1015.1 1015.1 0.0
24/11:49am 14.0 6.9 8.2 68 2.9 WSW 35 54 19 29 1015.1 1015.1 0.0
24/11:30am 14.1 7.1 8.3 68 2.9 W 35 50 19 27 1015.1 1015.1 0.0
24/11:00am 13.8 5.9 8.0 68 2.9 W 39 59 21 32 1015.3 1015.3 0.0
24/10:30am 14.0 6.7 8.8 71 2.6 W 37 57 20 31 1014.9 1015.0 0.0
24/10:03am 13.5 6.1 8.4 71 2.6 W 37 56 20 30 1014.4 1014.4 0.0
24/10:00am 13.9 6.6 8.9 72 2.5 W 37 50 20 27 1014.4 1014.4 0.0
24/09:30am 13.7 6.2 8.1 69 2.8 W 37 52 20 28 1014.1 1014.1 0.0
24/09:09am 13.6 6.1 8.0 69 2.8 W 37 56 20 30 1014.0 1014.0 0.0
24/09:00am 13.5 6.0 7.9 69 2.8 W 37 50 20 27 1013.8 1013.8 0.8
24/08:35am 12.9 4.8 8.6 75 2.2 W 41 59 22 32 1013.3 1013.3 0.8
24/08:30am 12.5 4.6 7.8 73 2.3 W 39 52 21 28 1013.2 1013.2 0.8
24/08:13am 13.7 6.8 8.7 72 2.5 W 35 54 19 29 1012.9 1012.9 0.8
24/08:00am 13.6 5.8 8.4 71 2.6 W 39 54 21 29 1012.7 1012.7 0.8
24/07:30am 13.2 5.7 9.3 77 2.0 W 39 57 21 31 1012.4 1012.4 0.8
24/07:26am 13.3 5.8 9.5 78 1.9 W 39 57 21 31 1012.4 1012.4 0.8
24/07:00am 12.7 6.2 10.4 86 1.2 W 35 52 19 28 1012.0 1012.0 0.8
24/06:57am 12.4 6.3 10.3 87 1.1 WNW 33 52 18 28 1012.1 1012.1 0.8
24/06:30am 12.3 6.4 10.4 88 1.0 WNW 32 46 17 25 1011.8 1011.8 0.6
24/06:00am 11.8 6.5 9.7 87 1.1 NW 28 43 15 23 1011.4 1011.4 0.4
24/05:30am 12.0 7.4 9.6 85 1.2 NW 24 39 13 21 1011.2 1011.2 0.4
24/05:00am 12.2 7.3 9.8 85 1.2 NW 26 41 14 22 1010.9 1010.9 0.0
24/04:30am 12.3 6.6 9.7 84 1.3 WNW 30 48 16 26 1010.7 1010.7 0.0
24/04:00am 12.1 6.6 9.3 83 1.4 NW 28 46 15 25 1010.7 1010.7 0.0
24/03:30am 12.2 6.6 8.9 80 1.7 NW 28 43 15 23 1010.5 1010.5 0.0
24/03:18am 12.2 6.6 8.7 79 1.7 WNW 28 48 15 26 1010.5 1010.5 0.0
24/03:00am 12.1 6.5 8.8 80 1.7 NW 28 43 15 23 1010.4 1010.4 0.0
24/02:30am 12.9 6.5 9.4 79 1.8 WNW 33 54 18 29 1010.6 1010.6 0.0
24/02:15am 13.0 6.8 9.3 78 1.9 NW 32 54 17 29 1010.5 1010.5 0.0
24/02:00am 12.8 6.9 8.9 77 2.0 NW 30 43 16 23 1010.6 1010.6 0.0
24/01:43am 13.0 7.4 8.9 76 2.1 NW 28 46 15 25 1010.6 1010.6 0.0
24/01:30am 12.9 7.7 8.8 76 2.1 NW 26 39 14 21 1010.6 1010.6 0.0
24/01:00am 12.8 7.5 8.5 75 2.2 NW 26 43 14 23 1010.7 1010.7 0.0
24/12:30am 13.0 8.9 8.5 74 2.3 NW 20 32 11 17 1010.8 1010.8 0.0
24/12:00am 12.7 9.2 8.6 76 2.1 NNW 17 24 9 13 1011.1 1011.1 0.0
 
Date/Time
EST
Temp
°C
App
Temp
°C
Dew
Point
°C
Rel
Hum
%
Delta-T
°C
Wind Press
QNH
hPa
Press
MSL
hPa
Rain since
9am
mm
Dir  Spd
km/h
Gust
km/h
Spd
kts
Gust
kts
23/11:30pm 13.1 8.3 8.8 75 2.2 NW 24 37 13 20 1011.5 1011.5 0.0
23/11:00pm 13.7 9.3 9.0 73 2.4 NNW 22 41 12 22 1011.7 1011.7 0.0
23/10:30pm 14.1 10.1 8.9 71 2.6 NNW 20 35 11 19 1012.0 1012.0 0.0
23/10:00pm 13.8 11.1 9.0 73 2.4 NNW 13 19 7 10 1012.1 1012.1 0.0
23/09:30pm 13.8 10.3 8.8 72 2.5 N 17 24 9 13 1012.2 1012.2 0.0
23/09:00pm 13.4 10.6 8.5 72 2.5 N 13 20 7 11 1012.4 1012.4 0.0
23/08:30pm 13.9 11.1 8.5 70 2.7 N 13 19 7 10 1012.5 1012.5 0.0
23/08:00pm 13.9 11.1 8.5 70 2.7 NNW 13 20 7 11 1012.5 1012.5 0.0
23/07:30pm 14.1 11.3 8.7 70 2.7 NNW 13 20 7 11 1012.6 1012.6 0.0
23/07:00pm 13.6 10.8 8.7 72 2.5 NNW 13 19 7 10 1012.7 1012.7 0.0
23/06:30pm 12.8 10.0 8.5 75 2.1 N 13 17 7 9 1012.8 1012.8 0.0
23/06:00pm 12.8 10.3 8.1 73 2.3 N 11 13 6 7 1012.7 1012.7 0.0
23/05:30pm 13.6 10.8 8.7 72 2.5 NNW 13 15 7 8 1012.7 1012.7 0.0
23/05:00pm 14.8 12.6 9.2 69 2.9 NW 11 17 6 9 1012.7 1012.7 0.0
23/04:30pm 15.9 14.1 10.9 72 2.7 NW 11 17 6 9 1012.7 1012.7 0.0
23/04:00pm 16.0 13.5 11.2 73 2.6 WNW 15 20 8 11 1012.7 1012.7 0.0
23/03:30pm 16.5 14.5 11.6 73 2.7 WNW 13 17 7 9 1012.6 1012.6 0.0
23/03:00pm 16.3 13.2 10.4 68 3.1 WNW 17 24 9 13 1012.7 1012.7 0.0
23/02:30pm 17.2 15.3 11.7 70 3.0 WNW 13 22 7 12 1012.8 1012.8 0.0
23/02:00pm 16.2 13.6 12.0 76 2.3 WNW 17 22 9 12 1013.1 1013.1 0.0
23/01:30pm 16.0 13.5 12.2 78 2.1 WNW 17 22 9 12 1013.5 1013.5 0.0
23/01:00pm 15.5 13.1 11.5 77 2.2 WNW 15 24 8 13 1014.0 1014.0 0.0
23/12:30pm 15.6 12.8 11.2 75 2.4 WNW 17 22 9 12 1014.0 1014.0 0.0
23/12:00pm 15.3 11.9 10.7 74 2.4 NW 19 26 10 14 1014.4 1014.4 0.0
23/11:30am 15.8 12.3 11.0 73 2.6 NW 20 35 11 19 1015.2 1015.2 0.0
23/11:00am 15.8 12.2 10.6 71 2.8 NW 20 32 11 17 1015.6 1015.6 0.0
23/10:30am 15.8 12.5 11.0 73 2.6 NNW 19 26 10 14 1015.6 1015.6 0.0
23/10:00am 15.6 11.8 11.0 74 2.5 NNW 22 35 12 19 1015.8 1015.8 0.0
23/09:30am 15.1 11.5 10.7 75 2.3 NW 20 32 11 17 1015.6 1015.6 0.0
23/09:00am 14.6 11.3 10.8 78 2.0 NNW 19 33 10 18 1015.8 1015.8 1.0
23/08:30am 13.6 10.0 10.4 81 1.7 NNW 20 37 11 20 1015.7 1015.7 1.0
23/08:00am 13.3 9.3 10.5 83 1.5 NNW 22 32 12 17 1015.4 1015.4 1.0
23/07:30am 13.1 8.3 10.3 83 1.5 N 26 41 14 22 1015.2 1015.2 1.0
23/07:00am 13.1 8.6 10.1 82 1.6 N 24 33 13 18 1015.4 1015.4 1.0
23/06:30am 13.2 10.3 9.8 80 1.8 NNW 15 22 8 12 1015.4 1015.4 0.4
23/06:00am 13.4 10.1 9.6 78 1.9 NNW 17 24 9 13 1014.9 1015.0 0.2
23/05:30am 13.7 9.5 9.6 76 2.1 N 22 28 12 15 1015.2 1015.2 0.2
23/05:00am 13.7 10.4 9.4 75 2.2 N 17 26 9 14 1015.1 1015.1 0.2
23/04:30am 14.1 10.2 9.3 73 2.5 NNW 20 28 11 15 1015.1 1015.1 0.0
23/04:00am 14.9 9.9 9.5 70 2.8 N 26 44 14 24 1014.5 1014.5 0.0
23/03:30am 15.8 10.6 9.0 64 3.5 N 26 37 14 20 1015.2 1015.2 0.0
23/03:00am 15.7 11.4 9.4 66 3.3 N 22 33 12 18 1015.2 1015.2 0.0
23/02:30am 15.6 12.3 9.5 67 3.2 N 17 28 9 15 1015.5 1015.5 0.0
23/02:00am 15.7 11.8 9.4 66 3.3 NNW 20 37 11 20 1015.9 1015.9 0.0
23/01:30am 16.7 12.0 9.1 61 3.9 NW 24 41 13 22 1016.3 1016.3 0.0
23/01:00am 17.2 12.7 8.6 57 4.4 N 22 37 12 20 1015.8 1015.8 0.0
23/12:30am 17.2 12.4 8.9 58 4.3 N 24 37 13 20 1015.6 1015.6 0.0
23/12:00am 17.3 12.9 9.0 58 4.3 N 22 37 12 20 1015.3 1015.3 0.0
 
Date/Time
EST
Temp
°C
App
Temp
°C
Dew
Point
°C
Rel
Hum
%
Delta-T
°C
Wind Press
QNH
hPa
Press
MSL
hPa
Rain since
9am
mm
Dir  Spd
km/h
Gust
km/h
Spd
kts
Gust
kts
22/11:30pm 17.4 11.9 9.1 58 4.3 N 28 43 15 23 1015.6 1015.6 0.0
22/11:00pm 17.5 11.3 9.2 58 4.3 N 32 48 17 26 1015.6 1015.6 0.0
22/10:30pm 17.6 10.8 9.2 58 4.4 N 35 54 19 29 1015.2 1015.2 0.0

Other Formats:

Comma delimited format used in spreadsheet applications
http://www.bom.gov.au/fwo/IDV60801/IDV60801.94842.axf

JavaScript Object Notation format (JSON) in row-major order
http://www.bom.gov.au/fwo/IDV60801/IDV60801.94842.json